Terminal Aerodrome Forecast
Issued by NWS St Louis, MO

Home | Current Version | Previous Version | Text Only | Print | Product List | Glossary On
Versions: 1 2 3 4 5 6 7 8 9 10 11 12 13 14 15 16 17 18 19 20 21 22 23 24 25 26 27 28 29 30 31 32 33 34 35 36 37 38 39 40 41 42
373
FTUS43 KLSX 210542 AAA
TAFSTL
TAF AMD
KSTL 210542Z 2106/2212 23007KT 6SM SHRA VCTS OVC070CB
      TEMPO 2106/2108 23015G25KT 5SM BR
     FM210900 VRB03KT P6SM VCSH OVC060
     FM211300 21007KT P6SM OVC050
     FM211800 23008KT P6SM VCSH BKN050
     FM212100 28005KT P6SM SCT190=

USA.gov is the U.S. government's official web portal to all federal, state and local government web resources and services.